createdAt,value
2023-01-27T00:00:37.923Z,-2.42
2023-01-27T00:03:04.305Z,-2.38
2023-01-27T00:05:30.684Z,-2.37
2023-01-27T00:07:58.520Z,-2.40
2023-01-27T00:10:25.699Z,-2.37
2023-01-27T00:13:10.626Z,-2.36
2023-01-27T00:15:37.089Z,-2.36
2023-01-27T00:18:03.519Z,-2.41
2023-01-27T00:20:48.664Z,-2.40
2023-01-27T00:23:39.609Z,-2.42
2023-01-27T00:26:09.163Z,-2.37
2023-01-27T00:28:36.577Z,-2.38
2023-01-27T00:31:04.100Z,-2.36
2023-01-27T00:33:30.855Z,-2.37
2023-01-27T00:36:05.902Z,-2.38
2023-01-27T00:38:34.872Z,-2.36
2023-01-27T00:41:19.609Z,-2.41
2023-01-27T00:43:47.628Z,-2.40
2023-01-27T00:46:14.666Z,-2.47
2023-01-27T00:48:41.113Z,-2.41
2023-01-27T00:51:07.784Z,-2.42
2023-01-27T00:53:34.174Z,-2.42
2023-01-27T00:56:00.656Z,-2.42
2023-01-27T00:58:28.340Z,-2.40
2023-01-27T01:00:59.764Z,-2.41
2023-01-27T01:03:26.784Z,-2.40
2023-01-27T01:05:53.283Z,-2.41
2023-01-27T01:08:19.592Z,-2.40
2023-01-27T01:10:46.113Z,-2.39
2023-01-27T01:13:12.661Z,-2.40
2023-01-27T01:15:39.685Z,-2.41
2023-01-27T01:18:09.027Z,-2.38
2023-01-27T01:20:41.471Z,-2.39
2023-01-27T01:23:08.516Z,-2.40
2023-01-27T01:25:35.291Z,-2.41
2023-01-27T01:28:03.035Z,-2.41
2023-01-27T01:30:30.110Z,-2.37
2023-01-27T01:32:57.187Z,-2.37
2023-01-27T01:35:25.148Z,-2.41
2023-01-27T01:37:53.432Z,-2.47
2023-01-27T01:40:20.589Z,-2.44
2023-01-27T01:42:50.009Z,-2.45
2023-01-27T01:45:31.781Z,-2.46
2023-01-27T01:48:01.067Z,-2.46
2023-01-27T01:50:27.639Z,-2.45
2023-01-27T01:52:54.774Z,-2.45
2023-01-27T01:55:23.465Z,-2.41
2023-01-27T01:57:50.930Z,-2.41
2023-01-27T02:00:17.801Z,-2.43
2023-01-27T02:02:45.715Z,-2.42
2023-01-27T02:05:24.400Z,-2.46
2023-01-27T02:08:06.519Z,-2.45
2023-01-27T02:10:34.145Z,-2.45
2023-01-27T02:13:00.687Z,-2.47
2023-01-27T02:15:29.236Z,-2.46
2023-01-27T02:17:55.997Z,-2.44
2023-01-27T02:20:40.190Z,-2.45
2023-01-27T02:23:25.021Z,-2.45
2023-01-27T02:26:20.451Z,-2.44
2023-01-27T02:28:54.564Z,-2.45
2023-01-27T02:31:21.011Z,-2.45
2023-01-27T02:33:47.777Z,-2.45
2023-01-27T02:36:16.500Z,-2.52
2023-01-27T02:39:02.824Z,-2.55
2023-01-27T02:41:35.131Z,-2.52
2023-01-27T02:44:01.886Z,-2.49
2023-01-27T02:46:28.451Z,-2.50
2023-01-27T02:48:55.112Z,-2.48
2023-01-27T02:51:21.634Z,-2.52
2023-01-27T02:53:48.094Z,-2.53
2023-01-27T02:56:14.507Z,-2.52
2023-01-27T02:58:41.002Z,-2.51
2023-01-27T03:01:08.279Z,-2.53
2023-01-27T03:03:34.711Z,-2.57
2023-01-27T03:06:01.109Z,-2.52
2023-01-27T03:08:27.527Z,-2.51
2023-01-27T03:10:55.722Z,-2.49
2023-01-27T03:13:23.891Z,-2.54
2023-01-27T03:16:09.580Z,-2.52
2023-01-27T03:18:36.447Z,-2.51
2023-01-27T03:21:05.870Z,-2.52
2023-01-27T03:23:34.712Z,-2.53
2023-01-27T03:26:01.985Z,-2.49
2023-01-27T03:28:28.455Z,-2.51
2023-01-27T03:31:03.154Z,-2.60
2023-01-27T03:33:29.779Z,-2.56
2023-01-27T03:36:15.364Z,-2.59
2023-01-27T03:39:00.848Z,-2.56
2023-01-27T03:41:45.645Z,-2.53
2023-01-27T03:44:30.353Z,-2.54
2023-01-27T03:46:56.685Z,-2.55
2023-01-27T03:49:23.140Z,-2.57
2023-01-27T03:51:49.521Z,-2.55
2023-01-27T03:54:15.901Z,-2.55
2023-01-27T03:56:42.355Z,-2.54
2023-01-27T03:59:08.683Z,-2.56
2023-01-27T04:01:35.087Z,-2.56
2023-01-27T04:04:19.878Z,-2.53
2023-01-27T04:06:52.163Z,-2.56
2023-01-27T04:09:28.174Z,-2.57
2023-01-27T04:11:56.658Z,-2.58
2023-01-27T04:14:25.898Z,-2.55
2023-01-27T04:16:53.939Z,-2.56
2023-01-27T04:19:20.482Z,-2.59
2023-01-27T04:21:47.536Z,-2.60
2023-01-27T04:24:22.425Z,-2.60
2023-01-27T04:26:55.458Z,-2.58
2023-01-27T04:29:34.818Z,-2.56
2023-01-27T04:32:01.801Z,-2.59
2023-01-27T04:34:28.183Z,-2.57
2023-01-27T04:36:55.948Z,-2.57
2023-01-27T04:39:22.597Z,-2.54
2023-01-27T04:41:49.699Z,-2.54
2023-01-27T04:44:16.213Z,-2.56
2023-01-27T04:46:42.593Z,-2.53
2023-01-27T04:49:09.112Z,-2.54
2023-01-27T04:51:35.581Z,-2.54
2023-01-27T04:54:03.734Z,-2.53
2023-01-27T04:56:43.060Z,-2.55
2023-01-27T04:59:12.157Z,-2.49
2023-01-27T05:01:38.755Z,-2.53
2023-01-27T05:04:05.345Z,-2.46
2023-01-27T05:06:31.691Z,-2.49
2023-01-27T05:08:58.178Z,-2.48
2023-01-27T05:11:24.696Z,-2.53
2023-01-27T05:13:51.467Z,-2.47
2023-01-27T05:16:23.886Z,-2.47
2023-01-27T05:18:51.956Z,-2.46
2023-01-27T05:21:21.623Z,-2.46
2023-01-27T05:23:48.814Z,-2.45
2023-01-27T05:26:18.949Z,-2.45
2023-01-27T05:28:46.837Z,-2.43
2023-01-27T05:31:21.601Z,-2.44
2023-01-27T05:33:51.489Z,-2.43
2023-01-27T05:36:19.800Z,-2.41
2023-01-27T05:38:47.069Z,-2.45
2023-01-27T05:41:17.187Z,-2.43
2023-01-27T05:43:46.092Z,-2.41
2023-01-27T05:46:18.201Z,-2.40
2023-01-27T05:48:49.612Z,-2.40
2023-01-27T05:51:16.869Z,-2.39
2023-01-27T05:53:44.070Z,-2.39
2023-01-27T05:56:13.085Z,-2.42
2023-01-27T05:58:39.654Z,-2.43
2023-01-27T06:01:11.717Z,-2.41
2023-01-27T06:03:38.833Z,-2.40
2023-01-27T06:06:06.775Z,-2.44
2023-01-27T06:08:33.625Z,-2.44
2023-01-27T06:11:00.139Z,-2.42
2023-01-27T06:13:27.352Z,-2.42
2023-01-27T06:15:55.782Z,-2.46
2023-01-27T06:18:22.800Z,-2.42
2023-01-27T06:20:49.316Z,-2.40
2023-01-27T06:23:16.975Z,-2.40
2023-01-27T06:25:48.145Z,-2.38
2023-01-27T06:28:28.081Z,-2.38
2023-01-27T06:30:55.001Z,-2.38
2023-01-27T06:33:21.452Z,-2.36
2023-01-27T06:35:47.908Z,-2.37
2023-01-27T06:38:15.500Z,-2.38
2023-01-27T06:40:42.209Z,-2.37
2023-01-27T06:43:14.589Z,-2.39
2023-01-27T06:45:41.392Z,-2.37
2023-01-27T06:48:08.869Z,-2.40
2023-01-27T06:50:36.425Z,-2.38
2023-01-27T06:53:05.531Z,-2.38
2023-01-27T06:55:32.296Z,-2.38
2023-01-27T06:57:58.826Z,-2.37
2023-01-27T07:00:25.348Z,-2.39
2023-01-27T07:02:53.768Z,-2.39
2023-01-27T07:05:20.168Z,-2.37
2023-01-27T07:07:46.623Z,-2.36
2023-01-27T07:10:13.351Z,-2.36
2023-01-27T07:12:39.885Z,-2.38
2023-01-27T07:15:07.869Z,-2.36
2023-01-27T07:17:35.092Z,-2.35
2023-01-27T07:20:02.662Z,-2.36
2023-01-27T07:22:29.057Z,-2.38
2023-01-27T07:24:58.344Z,-2.35
2023-01-27T07:27:25.312Z,-2.36
2023-01-27T07:29:52.070Z,-2.37
2023-01-27T07:32:18.585Z,-2.36
2023-01-27T07:34:44.988Z,-2.39
2023-01-27T07:37:11.572Z,-2.38
2023-01-27T07:39:38.223Z,-2.33
2023-01-27T07:42:05.378Z,-2.31
2023-01-27T07:44:31.906Z,-2.37
2023-01-27T07:46:59.062Z,-2.35
2023-01-27T07:49:27.530Z,-2.33
2023-01-27T07:51:54.267Z,-2.34
2023-01-27T07:54:20.785Z,-2.37
2023-01-27T07:56:47.193Z,-2.38
2023-01-27T07:59:13.728Z,-2.37
2023-01-27T08:01:41.750Z,-2.35
2023-01-27T08:04:08.252Z,-2.36
2023-01-27T08:06:34.646Z,-2.31
2023-01-27T08:09:01.055Z,-2.28
2023-01-27T08:11:27.597Z,-2.29
2023-01-27T08:13:54.061Z,-2.23
2023-01-27T08:16:20.587Z,-2.23
2023-01-27T08:18:47.052Z,-2.21
2023-01-27T08:21:13.837Z,-2.20
2023-01-27T08:23:40.567Z,-2.17
2023-01-27T08:26:07.595Z,-2.20
2023-01-27T08:28:35.861Z,-2.12
2023-01-27T08:31:11.306Z,-2.11
2023-01-27T08:33:38.738Z,-2.09
2023-01-27T08:36:08.318Z,-2.06
2023-01-27T08:38:35.455Z,-2.04
2023-01-27T08:41:11.408Z,-2.17
2023-01-27T08:43:38.501Z,-2.08
2023-01-27T08:46:06.543Z,-2.04
2023-01-27T08:48:34.554Z,-1.98
2023-01-27T08:51:02.111Z,-1.96
2023-01-27T08:53:29.241Z,-1.95
2023-01-27T08:55:57.648Z,-1.95
2023-01-27T08:58:24.570Z,-1.93
2023-01-27T09:00:51.012Z,-1.90
2023-01-27T09:03:17.500Z,-1.92
2023-01-27T09:05:43.887Z,-1.88
2023-01-27T09:08:10.425Z,-1.87
2023-01-27T09:10:39.125Z,-1.89
2023-01-27T09:13:05.860Z,-1.84
2023-01-27T09:15:32.350Z,-1.80
2023-01-27T09:17:58.840Z,-1.81
2023-01-27T09:20:25.316Z,-1.84
2023-01-27T09:22:54.673Z,-1.80
2023-01-27T09:25:21.157Z,-1.76
2023-01-27T09:27:47.956Z,-1.75
2023-01-27T09:30:16.369Z,-1.74
2023-01-27T09:32:43.033Z,-1.72
2023-01-27T09:35:09.929Z,-1.70
2023-01-27T09:37:54.071Z,-1.65
2023-01-27T09:41:00.831Z,-1.64
2023-01-27T09:43:36.209Z,-1.68
2023-01-27T09:46:23.368Z,-1.60
2023-01-27T09:49:17.897Z,-1.59
2023-01-27T09:52:26.249Z,-1.55
2023-01-27T09:55:15.868Z,-1.51
2023-01-27T09:58:01.327Z,-1.51
2023-01-27T10:00:42.461Z,-1.52
2023-01-27T10:03:23.509Z,-1.51
2023-01-27T10:06:19.665Z,-1.49
2023-01-27T10:08:54.204Z,-1.47
2023-01-27T10:11:23.627Z,-1.49
2023-01-27T10:14:39.038Z,-1.47
2023-01-27T10:17:20.827Z,-1.59
2023-01-27T10:19:53.248Z,-1.53
2023-01-27T10:22:53.724Z,-1.51
2023-01-27T10:25:38.577Z,-1.52
2023-01-27T10:28:13.081Z,-1.51
2023-01-27T10:30:58.261Z,-1.51
2023-01-27T10:33:34.414Z,-1.48
2023-01-27T10:36:10.047Z,-1.50
2023-01-27T10:38:50.851Z,-1.43
2023-01-27T10:41:29.560Z,-1.41
2023-01-27T10:44:07.468Z,-1.39
2023-01-27T10:47:18.876Z,-1.40
2023-01-27T10:49:58.648Z,-1.39
2023-01-27T10:52:31.753Z,-1.37
2023-01-27T10:55:04.098Z,-1.33
2023-01-27T10:57:41.615Z,-1.28
2023-01-27T11:03:23.234Z,-1.32
2023-01-27T11:05:52.737Z,-1.26
2023-01-27T11:08:26.851Z,-1.27
2023-01-27T11:11:15.163Z,-1.44
2023-01-27T11:13:42.032Z,-1.34
2023-01-27T11:16:19.899Z,-1.28
2023-01-27T11:18:54.950Z,-1.27
2023-01-27T11:21:25.721Z,-1.24
2023-01-27T11:23:56.859Z,-1.26
2023-01-27T11:26:30.207Z,-1.22
2023-01-27T11:29:32.287Z,-1.23
2023-01-27T11:32:04.419Z,-1.19
2023-01-27T11:34:39.905Z,-1.20
2023-01-27T11:37:20.636Z,-1.20
2023-01-27T11:39:47.579Z,-1.20
2023-01-27T11:42:15.243Z,-1.14
2023-01-27T11:44:43.787Z,-1.11
2023-01-27T11:47:22.788Z,-1.10
2023-01-27T11:49:52.337Z,-1.09
2023-01-27T11:52:22.443Z,-1.06
2023-01-27T11:54:48.839Z,-1.03
2023-01-27T11:57:21.412Z,-0.99
2023-01-27T11:59:52.910Z,-0.99
2023-01-27T12:02:29.981Z,-1.01
2023-01-27T12:05:18.940Z,-1.05
2023-01-27T12:08:02.767Z,-1.03
2023-01-27T12:10:39.163Z,-1.04
2023-01-27T12:13:09.938Z,-1.04
2023-01-27T12:15:37.998Z,-1.06
2023-01-27T12:18:13.734Z,-1.15
2023-01-27T12:20:59.249Z,-1.19
2023-01-27T12:23:37.184Z,-1.13
2023-01-27T12:26:08.034Z,-1.11
2023-01-27T12:28:37.453Z,-1.14
2023-01-27T12:31:28.512Z,-1.12
2023-01-27T12:34:04.868Z,-1.23
2023-01-27T12:36:39.596Z,-1.18
2023-01-27T12:39:07.651Z,-1.27
2023-01-27T12:41:37.576Z,-1.15
2023-01-27T12:44:19.448Z,-1.18
2023-01-27T12:47:03.651Z,-1.18
2023-01-27T12:49:39.607Z,-1.15
2023-01-27T12:52:09.170Z,-1.15
2023-01-27T12:54:36.191Z,-1.19
2023-01-27T12:57:15.801Z,-1.15
2023-01-27T12:59:50.133Z,-1.15
2023-01-27T13:02:20.607Z,-1.15
2023-01-27T13:05:01.742Z,-1.13
2023-01-27T13:07:30.951Z,-1.17
2023-01-27T13:10:02.680Z,-1.15
2023-01-27T13:12:35.153Z,-1.15
2023-01-27T13:15:22.536Z,-1.13
2023-01-27T13:17:51.671Z,-1.10
2023-01-27T13:20:24.869Z,-1.11
2023-01-27T13:23:18.516Z,-1.10
2023-01-27T13:26:09.631Z,-1.09
2023-01-27T13:29:01.224Z,-1.09
2023-01-27T13:31:43.119Z,-1.09
2023-01-27T13:34:30.380Z,-1.08
2023-01-27T13:37:14.779Z,-1.09
2023-01-27T13:40:03.049Z,-1.10
2023-01-27T13:42:42.421Z,-1.09
2023-01-27T13:45:14.681Z,-1.07
2023-01-27T13:47:47.140Z,-1.10
2023-01-27T13:50:39.791Z,-1.12
2023-01-27T13:53:10.035Z,-1.13
2023-01-27T13:55:51.401Z,-1.12
2023-01-27T13:58:36.363Z,-1.10
2023-01-27T14:01:15.704Z,-1.11
2023-01-27T14:04:02.505Z,-1.12
2023-01-27T14:07:00.515Z,-1.26
2023-01-27T14:09:33.053Z,-1.24
2023-01-27T14:12:41.536Z,-1.21
2023-01-27T14:15:23.481Z,-1.22
2023-01-27T14:18:13.365Z,-1.20
2023-01-27T14:20:55.920Z,-1.22
2023-01-27T14:23:44.691Z,-1.20
2023-01-27T14:26:11.028Z,-1.22
2023-01-27T14:29:19.400Z,-1.21
2023-01-27T14:32:05.818Z,-1.24
2023-01-27T14:34:44.397Z,-1.23
2023-01-27T14:37:18.449Z,-1.26
2023-01-27T14:40:22.383Z,-1.28
2023-01-27T14:43:01.002Z,-1.30
2023-01-27T14:45:37.046Z,-1.28
2023-01-27T14:48:34.539Z,-1.27
2023-01-27T14:51:16.194Z,-1.27
2023-01-27T14:53:42.520Z,-1.28
2023-01-27T14:56:16.404Z,-1.31
2023-01-27T14:58:51.137Z,-1.29
2023-01-27T15:01:42.670Z,-1.34
2023-01-27T15:04:21.206Z,-1.33
2023-01-27T15:06:54.950Z,-1.33
2023-01-27T15:09:49.753Z,-1.35
2023-01-27T15:12:54.040Z,-1.34
2023-01-27T15:15:42.685Z,-1.35
2023-01-27T15:18:23.325Z,-1.36
2023-01-27T15:21:09.345Z,-1.39
2023-01-27T15:23:38.683Z,-1.41
2023-01-27T15:26:08.247Z,-1.41
2023-01-27T15:28:39.745Z,-1.43
2023-01-27T15:31:12.225Z,-1.42
2023-01-27T15:33:55.633Z,-1.43
2023-01-27T15:36:28.247Z,-1.44
2023-01-27T15:38:58.930Z,-1.43
2023-01-27T15:41:25.619Z,-1.45
2023-01-27T15:44:15.746Z,-1.47
2023-01-27T15:46:48.497Z,-1.47
2023-01-27T15:49:22.632Z,-1.50
2023-01-27T15:51:52.061Z,-1.51
2023-01-27T15:54:26.059Z,-1.47
2023-01-27T15:56:54.257Z,-1.50
2023-01-27T15:59:27.808Z,-1.50
2023-01-27T16:02:15.865Z,-1.51
2023-01-27T16:04:42.787Z,-1.53
2023-01-27T16:07:24.745Z,-1.53
2023-01-27T16:09:52.557Z,-1.53
2023-01-27T16:12:35.736Z,-1.51
2023-01-27T16:15:20.759Z,-1.55
2023-01-27T16:18:06.960Z,-1.58
2023-01-27T16:20:38.727Z,-1.57
2023-01-27T16:23:30.283Z,-1.56
2023-01-27T16:26:13.479Z,-1.56
2023-01-27T16:28:45.483Z,-1.54
2023-01-27T16:31:20.533Z,-1.54
2023-01-27T16:33:51.616Z,-1.57
2023-01-27T16:36:28.379Z,-1.59
2023-01-27T16:38:58.292Z,-1.64
2023-01-27T16:41:30.770Z,-1.61
2023-01-27T16:44:05.218Z,-1.61
2023-01-27T16:46:39.659Z,-1.59
2023-01-27T16:49:24.313Z,-1.63
2023-01-27T16:51:59.753Z,-1.62
2023-01-27T16:54:35.255Z,-1.63
2023-01-27T16:57:04.561Z,-1.67
2023-01-27T16:59:35.567Z,-1.64
2023-01-27T17:02:05.799Z,-1.63
2023-01-27T17:04:32.886Z,-1.64
2023-01-27T17:07:13.279Z,-1.63
2023-01-27T17:09:41.688Z,-1.65
2023-01-27T17:12:43.213Z,-1.67
2023-01-27T17:15:17.985Z,-1.66
2023-01-27T17:17:44.645Z,-1.68
2023-01-27T17:20:22.186Z,-1.69
2023-01-27T17:22:54.044Z,-1.70
2023-01-27T17:25:28.709Z,-1.70
2023-01-27T17:27:56.615Z,-1.70
2023-01-27T17:30:26.225Z,-1.70
2023-01-27T17:32:58.209Z,-1.67
2023-01-27T17:35:31.386Z,-1.71
2023-01-27T17:38:25.461Z,-1.76
2023-01-27T17:40:54.920Z,-1.74
2023-01-27T17:43:39.134Z,-1.76
2023-01-27T17:46:05.528Z,-1.74
2023-01-27T17:48:33.163Z,-1.73
2023-01-27T17:50:59.671Z,-1.72
2023-01-27T17:53:26.160Z,-1.73
2023-01-27T17:55:53.589Z,-1.72
2023-01-27T17:58:27.562Z,-1.72
2023-01-27T18:00:55.715Z,-1.75
2023-01-27T18:03:25.868Z,-1.73
2023-01-27T18:05:54.639Z,-1.74
2023-01-27T18:08:23.463Z,-1.76
2023-01-27T18:10:50.933Z,-1.73
2023-01-27T18:13:20.103Z,-1.76
2023-01-27T18:16:31.212Z,-1.76
2023-01-27T18:19:20.427Z,-1.76
2023-01-27T18:21:48.056Z,-1.78
2023-01-27T18:24:21.127Z,-1.80
2023-01-27T18:26:49.231Z,-1.79
2023-01-27T18:29:31.186Z,-1.84
2023-01-27T18:32:19.416Z,-1.85
2023-01-27T18:34:49.992Z,-1.89
2023-01-27T18:37:37.429Z,-1.85
2023-01-27T18:40:26.527Z,-1.84
2023-01-27T18:42:54.035Z,-1.88
2023-01-27T18:45:20.629Z,-1.86
2023-01-27T18:47:47.304Z,-1.85
2023-01-27T18:50:18.148Z,-1.87
2023-01-27T18:52:45.397Z,-1.88
2023-01-27T18:55:15.666Z,-1.86
2023-01-27T18:57:43.973Z,-1.88
2023-01-27T19:00:15.943Z,-1.87
2023-01-27T19:02:48.987Z,-1.88
2023-01-27T19:05:19.455Z,-1.91
2023-01-27T19:07:45.901Z,-1.90
2023-01-27T19:10:15.201Z,-1.90
2023-01-27T19:12:41.672Z,-1.93
2023-01-27T19:15:09.808Z,-1.89
2023-01-27T19:17:36.180Z,-1.92
2023-01-27T19:20:16.990Z,-1.88
2023-01-27T19:22:43.367Z,-1.85
2023-01-27T19:25:09.943Z,-1.83
2023-01-27T19:27:39.960Z,-1.85
2023-01-27T19:30:27.345Z,-1.88
2023-01-27T19:32:55.178Z,-1.89
2023-01-27T19:35:28.450Z,-1.89
2023-01-27T19:37:56.165Z,-1.91
2023-01-27T19:40:25.911Z,-1.90
2023-01-27T19:42:52.451Z,-1.94
2023-01-27T19:45:20.677Z,-1.91
2023-01-27T19:47:49.288Z,-1.90
2023-01-27T19:50:23.184Z,-1.93
2023-01-27T19:52:50.092Z,-1.92
2023-01-27T19:55:18.308Z,-1.91
2023-01-27T19:57:45.022Z,-1.91
2023-01-27T20:00:29.863Z,-1.91
2023-01-27T20:02:56.628Z,-1.91
2023-01-27T20:05:24.650Z,-1.92
2023-01-27T20:07:51.678Z,-1.90
2023-01-27T20:10:21.570Z,-1.91
2023-01-27T20:13:05.780Z,-1.92
2023-01-27T20:15:37.157Z,-1.94
2023-01-27T20:18:04.383Z,-1.94
2023-01-27T20:20:30.837Z,-1.93
2023-01-27T20:22:57.403Z,-1.96
2023-01-27T20:25:25.834Z,-1.94
2023-01-27T20:27:54.978Z,-1.96
2023-01-27T20:30:26.559Z,-1.94
2023-01-27T20:32:55.142Z,-1.95
2023-01-27T20:35:22.977Z,-1.95
2023-01-27T20:37:50.754Z,-1.96
2023-01-27T20:40:19.821Z,-2.00
2023-01-27T20:42:46.820Z,-1.98
2023-01-27T20:45:13.733Z,-1.97
2023-01-27T20:47:41.431Z,-1.94
2023-01-27T20:50:09.607Z,-1.94
2023-01-27T20:52:37.377Z,-1.99
2023-01-27T20:55:05.029Z,-1.99
2023-01-27T20:57:31.695Z,-1.97
2023-01-27T20:59:59.235Z,-1.99
2023-01-27T21:02:26.772Z,-1.97
2023-01-27T21:04:53.568Z,-1.98
2023-01-27T21:07:24.103Z,-1.98
2023-01-27T21:09:53.316Z,-1.97
2023-01-27T21:12:20.751Z,-1.92
2023-01-27T21:14:47.208Z,-1.92
2023-01-27T21:17:13.856Z,-1.93
2023-01-27T21:19:40.246Z,-1.92
2023-01-27T21:22:06.721Z,-1.92
2023-01-27T21:24:33.532Z,-1.98
2023-01-27T21:27:01.121Z,-1.95
2023-01-27T21:29:27.461Z,-1.96
2023-01-27T21:31:53.855Z,-1.96
2023-01-27T21:34:20.358Z,-1.93
2023-01-27T21:36:46.947Z,-1.93
2023-01-27T21:39:13.387Z,-1.94
2023-01-27T21:41:52.636Z,-1.97
2023-01-27T21:44:41.814Z,-1.97
2023-01-27T21:47:10.765Z,-1.98
2023-01-27T21:49:58.031Z,-1.98
2023-01-27T21:52:26.541Z,-1.99
2023-01-27T21:54:53.013Z,-1.99
2023-01-27T21:57:19.506Z,-2.01
2023-01-27T21:59:46.134Z,-2.02
2023-01-27T22:02:14.464Z,-2.00
2023-01-27T22:04:45.164Z,-1.98
2023-01-27T22:07:13.848Z,-1.96
2023-01-27T22:09:40.354Z,-1.96
2023-01-27T22:12:10.012Z,-1.97
2023-01-27T22:14:36.444Z,-1.97
2023-01-27T22:17:03.517Z,-1.99
2023-01-27T22:19:30.256Z,-1.98
2023-01-27T22:21:56.786Z,-1.96
2023-01-27T22:24:23.234Z,-1.96
2023-01-27T22:26:49.945Z,-1.97
2023-01-27T22:29:16.420Z,-1.98
2023-01-27T22:31:42.796Z,-2.00
2023-01-27T22:34:09.404Z,-1.99
2023-01-27T22:36:36.388Z,-2.00
2023-01-27T22:39:04.029Z,-1.98
2023-01-27T22:41:30.789Z,-1.99
2023-01-27T22:43:57.175Z,-1.97
2023-01-27T22:46:24.374Z,-1.96
2023-01-27T22:48:50.814Z,-1.96
2023-01-27T22:51:17.776Z,-1.99
2023-01-27T22:53:44.178Z,-2.04
2023-01-27T22:56:10.738Z,-2.02
2023-01-27T22:58:37.132Z,-2.02
2023-01-27T23:01:07.577Z,-2.06
2023-01-27T23:03:34.023Z,-2.04
2023-01-27T23:06:07.478Z,-2.03
2023-01-27T23:08:34.722Z,-2.05
2023-01-27T23:11:03.312Z,-2.05
2023-01-27T23:13:31.287Z,-2.03
2023-01-27T23:15:58.156Z,-2.05
2023-01-27T23:18:24.932Z,-2.05
2023-01-27T23:20:51.354Z,-2.06
2023-01-27T23:23:19.282Z,-2.04
2023-01-27T23:25:46.858Z,-2.03
2023-01-27T23:28:15.518Z,-1.99
2023-01-27T23:30:46.491Z,-2.04
2023-01-27T23:33:14.903Z,-2.01
2023-01-27T23:35:41.516Z,-2.03
2023-01-27T23:38:19.376Z,-2.08
2023-01-27T23:40:55.998Z,-2.08
2023-01-27T23:43:23.758Z,-2.04
2023-01-27T23:45:54.523Z,-2.04
2023-01-27T23:48:22.768Z,-2.02
2023-01-27T23:50:49.780Z,-2.01
2023-01-27T23:53:16.419Z,-2.06
2023-01-27T23:55:43.503Z,-2.05
2023-01-27T23:58:10.321Z,-2.02
